sensor_id;sensor_type;location;lat;lon;timestamp;P1;durP1;ratioP1;P2;durP2;ratioP2
22916;SDS011;11624;53.250;7.456;2022-12-18T00:00:03;93.70;;;37.93;;
22916;SDS011;11624;53.250;7.456;2022-12-18T00:02:39;98.17;;;37.33;;
22916;SDS011;11624;53.250;7.456;2022-12-18T00:05:08;100.23;;;36.87;;
22916;SDS011;11624;53.250;7.456;2022-12-18T00:07:36;95.43;;;37.43;;
22916;SDS011;11624;53.250;7.456;2022-12-18T00:10:05;95.43;;;35.23;;
22916;SDS011;11624;53.250;7.456;2022-12-18T00:12:34;101.23;;;35.67;;
22916;SDS011;11624;53.250;7.456;2022-12-18T00:15:02;91.53;;;37.40;;
22916;SDS011;11624;53.250;7.456;2022-12-18T00:17:31;100.10;;;36.17;;
22916;SDS011;11624;53.250;7.456;2022-12-18T00:19:59;96.80;;;37.53;;
22916;SDS011;11624;53.250;7.456;2022-12-18T00:22:28;100.87;;;36.93;;
22916;SDS011;11624;53.250;7.456;2022-12-18T00:24:56;102.87;;;37.00;;
22916;SDS011;11624;53.250;7.456;2022-12-18T00:27:24;98.87;;;35.07;;
22916;SDS011;11624;53.250;7.456;2022-12-18T00:29:52;92.80;;;36.27;;
22916;SDS011;11624;53.250;7.456;2022-12-18T00:32:20;91.57;;;37.13;;
22916;SDS011;11624;53.250;7.456;2022-12-18T00:34:48;106.90;;;38.53;;
22916;SDS011;11624;53.250;7.456;2022-12-18T00:37:16;96.77;;;35.57;;
22916;SDS011;11624;53.250;7.456;2022-12-18T00:39:51;99.47;;;37.57;;
22916;SDS011;11624;53.250;7.456;2022-12-18T00:42:19;96.23;;;36.60;;
22916;SDS011;11624;53.250;7.456;2022-12-18T00:45:05;92.97;;;34.60;;
22916;SDS011;11624;53.250;7.456;2022-12-18T00:47:38;102.70;;;35.93;;
22916;SDS011;11624;53.250;7.456;2022-12-18T00:50:07;92.47;;;35.40;;
22916;SDS011;11624;53.250;7.456;2022-12-18T00:52:36;97.03;;;37.30;;
22916;SDS011;11624;53.250;7.456;2022-12-18T00:55:06;100.70;;;37.27;;
22916;SDS011;11624;53.250;7.456;2022-12-18T00:57:35;102.70;;;37.93;;
22916;SDS011;11624;53.250;7.456;2022-12-18T01:00:04;101.57;;;36.63;;
22916;SDS011;11624;53.250;7.456;2022-12-18T01:02:34;93.83;;;35.20;;
22916;SDS011;11624;53.250;7.456;2022-12-18T01:05:02;93.33;;;35.40;;
22916;SDS011;11624;53.250;7.456;2022-12-18T01:07:30;99.90;;;39.47;;
22916;SDS011;11624;53.250;7.456;2022-12-18T01:09:58;107.17;;;43.20;;
22916;SDS011;11624;53.250;7.456;2022-12-18T01:12:28;106.33;;;39.73;;
22916;SDS011;11624;53.250;7.456;2022-12-18T01:14:56;92.97;;;37.43;;
22916;SDS011;11624;53.250;7.456;2022-12-18T01:17:24;97.57;;;39.07;;
22916;SDS011;11624;53.250;7.456;2022-12-18T01:19:52;94.07;;;36.03;;
22916;SDS011;11624;53.250;7.456;2022-12-18T01:22:20;91.40;;;35.07;;
22916;SDS011;11624;53.250;7.456;2022-12-18T01:24:48;97.90;;;36.83;;
22916;SDS011;11624;53.250;7.456;2022-12-18T01:27:16;90.67;;;33.60;;
22916;SDS011;11624;53.250;7.456;2022-12-18T01:29:47;92.43;;;34.00;;
22916;SDS011;11624;53.250;7.456;2022-12-18T01:32:18;104.63;;;35.97;;
22916;SDS011;11624;53.250;7.456;2022-12-18T01:34:46;96.83;;;35.07;;
22916;SDS011;11624;53.250;7.456;2022-12-18T01:37:14;83.97;;;33.87;;
22916;SDS011;11624;53.250;7.456;2022-12-18T01:39:42;98.80;;;36.07;;
22916;SDS011;11624;53.250;7.456;2022-12-18T01:42:12;96.47;;;35.27;;
22916;SDS011;11624;53.250;7.456;2022-12-18T01:45:00;93.90;;;34.50;;
22916;SDS011;11624;53.250;7.456;2022-12-18T01:47:32;87.63;;;35.57;;
22916;SDS011;11624;53.250;7.456;2022-12-18T01:50:04;87.50;;;35.63;;
22916;SDS011;11624;53.250;7.456;2022-12-18T01:52:35;92.57;;;35.00;;
22916;SDS011;11624;53.250;7.456;2022-12-18T01:55:05;94.13;;;35.53;;
22916;SDS011;11624;53.250;7.456;2022-12-18T01:57:34;88.13;;;33.63;;
22916;SDS011;11624;53.250;7.456;2022-12-18T02:00:05;94.87;;;34.77;;
22916;SDS011;11624;53.250;7.456;2022-12-18T02:02:38;92.47;;;34.80;;
22916;SDS011;11624;53.250;7.456;2022-12-18T02:05:07;87.13;;;33.77;;
22916;SDS011;11624;53.250;7.456;2022-12-18T02:07:39;87.70;;;32.57;;
22916;SDS011;11624;53.250;7.456;2022-12-18T02:10:15;85.63;;;32.43;;
22916;SDS011;11624;53.250;7.456;2022-12-18T02:12:51;91.83;;;33.17;;
22916;SDS011;11624;53.250;7.456;2022-12-18T02:15:36;81.97;;;32.83;;
22916;SDS011;11624;53.250;7.456;2022-12-18T02:18:08;79.03;;;32.27;;
22916;SDS011;11624;53.250;7.456;2022-12-18T02:20:40;86.37;;;32.77;;
22916;SDS011;11624;53.250;7.456;2022-12-18T02:23:16;85.00;;;32.50;;
22916;SDS011;11624;53.250;7.456;2022-12-18T02:26:02;85.20;;;32.37;;
22916;SDS011;11624;53.250;7.456;2022-12-18T02:28:36;86.43;;;33.43;;
22916;SDS011;11624;53.250;7.456;2022-12-18T02:31:11;85.10;;;31.93;;
22916;SDS011;11624;53.250;7.456;2022-12-18T02:33:42;79.37;;;31.17;;
22916;SDS011;11624;53.250;7.456;2022-12-18T02:36:12;87.53;;;32.37;;
22916;SDS011;11624;53.250;7.456;2022-12-18T02:38:44;82.90;;;32.13;;
22916;SDS011;11624;53.250;7.456;2022-12-18T02:41:16;80.83;;;31.77;;
22916;SDS011;11624;53.250;7.456;2022-12-18T02:43:52;89.33;;;33.23;;
22916;SDS011;11624;53.250;7.456;2022-12-18T02:46:25;84.33;;;32.07;;
22916;SDS011;11624;53.250;7.456;2022-12-18T02:49:06;86.67;;;30.87;;
22916;SDS011;11624;53.250;7.456;2022-12-18T02:51:45;89.40;;;31.27;;
22916;SDS011;11624;53.250;7.456;2022-12-18T02:54:22;82.07;;;31.53;;
22916;SDS011;11624;53.250;7.456;2022-12-18T02:57:04;87.33;;;30.40;;
22916;SDS011;11624;53.250;7.456;2022-12-18T02:59:39;91.37;;;32.73;;
22916;SDS011;11624;53.250;7.456;2022-12-18T03:02:17;77.97;;;29.87;;
22916;SDS011;11624;53.250;7.456;2022-12-18T03:04:51;80.47;;;30.53;;
22916;SDS011;11624;53.250;7.456;2022-12-18T03:07:27;76.10;;;29.40;;
22916;SDS011;11624;53.250;7.456;2022-12-18T03:10:03;87.30;;;32.00;;
22916;SDS011;11624;53.250;7.456;2022-12-18T03:12:37;81.10;;;31.60;;
22916;SDS011;11624;53.250;7.456;2022-12-18T03:15:11;79.67;;;30.07;;
22916;SDS011;11624;53.250;7.456;2022-12-18T03:17:46;82.20;;;31.40;;
22916;SDS011;11624;53.250;7.456;2022-12-18T03:20:20;77.67;;;28.90;;
22916;SDS011;11624;53.250;7.456;2022-12-18T03:22:53;82.73;;;31.40;;
22916;SDS011;11624;53.250;7.456;2022-12-18T03:25:27;81.53;;;31.23;;
22916;SDS011;11624;53.250;7.456;2022-12-18T03:27:59;78.50;;;30.17;;
22916;SDS011;11624;53.250;7.456;2022-12-18T03:30:29;88.37;;;30.37;;
22916;SDS011;11624;53.250;7.456;2022-12-18T03:33:01;90.23;;;30.20;;
22916;SDS011;11624;53.250;7.456;2022-12-18T03:35:37;87.53;;;31.07;;
22916;SDS011;11624;53.250;7.456;2022-12-18T03:38:07;86.30;;;31.13;;
22916;SDS011;11624;53.250;7.456;2022-12-18T03:40:45;83.13;;;30.37;;
22916;SDS011;11624;53.250;7.456;2022-12-18T03:43:25;86.80;;;32.27;;
22916;SDS011;11624;53.250;7.456;2022-12-18T03:46:02;87.50;;;30.37;;
22916;SDS011;11624;53.250;7.456;2022-12-18T03:48:37;81.40;;;29.53;;
22916;SDS011;11624;53.250;7.456;2022-12-18T03:51:14;76.30;;;30.13;;
22916;SDS011;11624;53.250;7.456;2022-12-18T03:53:49;77.93;;;31.47;;
22916;SDS011;11624;53.250;7.456;2022-12-18T03:56:26;78.83;;;29.90;;
22916;SDS011;11624;53.250;7.456;2022-12-18T03:59:00;82.00;;;30.10;;
22916;SDS011;11624;53.250;7.456;2022-12-18T04:01:32;85.57;;;29.73;;
22916;SDS011;11624;53.250;7.456;2022-12-18T04:04:03;71.10;;;28.67;;
22916;SDS011;11624;53.250;7.456;2022-12-18T04:06:36;80.23;;;30.83;;
22916;SDS011;11624;53.250;7.456;2022-12-18T04:09:08;83.50;;;31.07;;
22916;SDS011;11624;53.250;7.456;2022-12-18T04:11:41;79.13;;;29.47;;
22916;SDS011;11624;53.250;7.456;2022-12-18T04:14:14;78.97;;;29.00;;
22916;SDS011;11624;53.250;7.456;2022-12-18T04:16:47;79.67;;;29.87;;
22916;SDS011;11624;53.250;7.456;2022-12-18T04:19:17;81.17;;;30.60;;
22916;SDS011;11624;53.250;7.456;2022-12-18T04:21:48;78.17;;;28.30;;
22916;SDS011;11624;53.250;7.456;2022-12-18T04:24:16;75.40;;;28.73;;
22916;SDS011;11624;53.250;7.456;2022-12-18T04:26:56;85.07;;;28.43;;
22916;SDS011;11624;53.250;7.456;2022-12-18T04:29:31;79.97;;;29.33;;
22916;SDS011;11624;53.250;7.456;2022-12-18T04:32:00;74.07;;;28.90;;
22916;SDS011;11624;53.250;7.456;2022-12-18T04:34:30;84.27;;;28.57;;
22916;SDS011;11624;53.250;7.456;2022-12-18T04:36:58;88.33;;;29.57;;
22916;SDS011;11624;53.250;7.456;2022-12-18T04:39:26;77.10;;;29.00;;
22916;SDS011;11624;53.250;7.456;2022-12-18T04:41:58;82.90;;;29.47;;
22916;SDS011;11624;53.250;7.456;2022-12-18T04:44:27;80.23;;;30.37;;
22916;SDS011;11624;53.250;7.456;2022-12-18T04:46:56;79.63;;;27.83;;
22916;SDS011;11624;53.250;7.456;2022-12-18T04:49:24;76.40;;;30.17;;
22916;SDS011;11624;53.250;7.456;2022-12-18T04:51:52;76.17;;;28.50;;
22916;SDS011;11624;53.250;7.456;2022-12-18T04:54:21;82.17;;;28.83;;
22916;SDS011;11624;53.250;7.456;2022-12-18T04:56:49;68.73;;;26.87;;
22916;SDS011;11624;53.250;7.456;2022-12-18T04:59:17;82.50;;;28.37;;
22916;SDS011;11624;53.250;7.456;2022-12-18T05:01:45;78.23;;;28.93;;
22916;SDS011;11624;53.250;7.456;2022-12-18T05:04:15;77.43;;;27.73;;
22916;SDS011;11624;53.250;7.456;2022-12-18T05:06:43;81.70;;;27.70;;
22916;SDS011;11624;53.250;7.456;2022-12-18T05:09:11;77.37;;;27.90;;
22916;SDS011;11624;53.250;7.456;2022-12-18T05:11:39;75.57;;;27.03;;
22916;SDS011;11624;53.250;7.456;2022-12-18T05:14:07;73.97;;;26.53;;
22916;SDS011;11624;53.250;7.456;2022-12-18T05:16:35;68.90;;;26.93;;
22916;SDS011;11624;53.250;7.456;2022-12-18T05:19:03;64.50;;;24.97;;
22916;SDS011;11624;53.250;7.456;2022-12-18T05:21:33;66.80;;;26.10;;
22916;SDS011;11624;53.250;7.456;2022-12-18T05:24:01;71.37;;;25.47;;
22916;SDS011;11624;53.250;7.456;2022-12-18T05:26:29;67.93;;;25.73;;
22916;SDS011;11624;53.250;7.456;2022-12-18T05:28:57;70.43;;;26.67;;
22916;SDS011;11624;53.250;7.456;2022-12-18T05:31:25;62.17;;;24.40;;
22916;SDS011;11624;53.250;7.456;2022-12-18T05:33:54;63.23;;;24.07;;
22916;SDS011;11624;53.250;7.456;2022-12-18T05:36:22;62.97;;;23.70;;
22916;SDS011;11624;53.250;7.456;2022-12-18T05:38:51;65.80;;;24.73;;
22916;SDS011;11624;53.250;7.456;2022-12-18T05:41:19;62.17;;;25.10;;
22916;SDS011;11624;53.250;7.456;2022-12-18T05:43:47;63.57;;;23.57;;
22916;SDS011;11624;53.250;7.456;2022-12-18T05:46:16;67.03;;;24.53;;
22916;SDS011;11624;53.250;7.456;2022-12-18T05:48:45;54.43;;;23.20;;
22916;SDS011;11624;53.250;7.456;2022-12-18T05:51:15;56.63;;;23.47;;
22916;SDS011;11624;53.250;7.456;2022-12-18T05:53:45;56.07;;;22.83;;
22916;SDS011;11624;53.250;7.456;2022-12-18T05:56:17;59.17;;;23.80;;
22916;SDS011;11624;53.250;7.456;2022-12-18T05:58:47;58.47;;;22.37;;
22916;SDS011;11624;53.250;7.456;2022-12-18T06:01:15;60.10;;;23.67;;
22916;SDS011;11624;53.250;7.456;2022-12-18T06:03:45;57.43;;;22.80;;
22916;SDS011;11624;53.250;7.456;2022-12-18T06:06:14;55.93;;;22.43;;
22916;SDS011;11624;53.250;7.456;2022-12-18T06:08:42;56.00;;;22.67;;
22916;SDS011;11624;53.250;7.456;2022-12-18T06:11:12;51.37;;;21.70;;
22916;SDS011;11624;53.250;7.456;2022-12-18T06:13:42;51.57;;;22.77;;
22916;SDS011;11624;53.250;7.456;2022-12-18T06:16:10;46.80;;;20.60;;
22916;SDS011;11624;53.250;7.456;2022-12-18T06:18:38;50.67;;;21.10;;
22916;SDS011;11624;53.250;7.456;2022-12-18T06:21:06;51.80;;;21.93;;
22916;SDS011;11624;53.250;7.456;2022-12-18T06:23:34;57.43;;;21.73;;
22916;SDS011;11624;53.250;7.456;2022-12-18T06:26:04;47.83;;;20.53;;
22916;SDS011;11624;53.250;7.456;2022-12-18T06:28:34;53.33;;;21.33;;
22916;SDS011;11624;53.250;7.456;2022-12-18T06:31:04;53.97;;;20.73;;
22916;SDS011;11624;53.250;7.456;2022-12-18T06:33:33;52.33;;;20.47;;
22916;SDS011;11624;53.250;7.456;2022-12-18T06:36:02;49.90;;;20.57;;
22916;SDS011;11624;53.250;7.456;2022-12-18T06:38:32;50.23;;;21.50;;
22916;SDS011;11624;53.250;7.456;2022-12-18T06:41:05;50.53;;;20.60;;
22916;SDS011;11624;53.250;7.456;2022-12-18T06:43:34;48.70;;;20.60;;
22916;SDS011;11624;53.250;7.456;2022-12-18T06:46:05;49.87;;;20.90;;
22916;SDS011;11624;53.250;7.456;2022-12-18T06:48:33;51.17;;;20.87;;
22916;SDS011;11624;53.250;7.456;2022-12-18T06:51:01;47.40;;;20.30;;
22916;SDS011;11624;53.250;7.456;2022-12-18T06:53:31;43.37;;;19.30;;
22916;SDS011;11624;53.250;7.456;2022-12-18T06:56:00;44.93;;;19.53;;
22916;SDS011;11624;53.250;7.456;2022-12-18T06:58:35;44.90;;;19.83;;
22916;SDS011;11624;53.250;7.456;2022-12-18T07:01:05;47.97;;;20.17;;
22916;SDS011;11624;53.250;7.456;2022-12-18T07:03:35;43.30;;;18.97;;
22916;SDS011;11624;53.250;7.456;2022-12-18T07:06:04;51.90;;;21.23;;
22916;SDS011;11624;53.250;7.456;2022-12-18T07:08:32;48.90;;;20.53;;
22916;SDS011;11624;53.250;7.456;2022-12-18T07:11:02;42.67;;;20.33;;
22916;SDS011;11624;53.250;7.456;2022-12-18T07:13:31;43.67;;;18.60;;
22916;SDS011;11624;53.250;7.456;2022-12-18T07:16:04;44.13;;;20.77;;
22916;SDS011;11624;53.250;7.456;2022-12-18T07:18:43;47.90;;;20.93;;
22916;SDS011;11624;53.250;7.456;2022-12-18T07:21:13;44.40;;;19.40;;
22916;SDS011;11624;53.250;7.456;2022-12-18T07:23:43;49.97;;;20.43;;
22916;SDS011;11624;53.250;7.456;2022-12-18T07:28:46;41.30;;;17.90;;
22916;SDS011;11624;53.250;7.456;2022-12-18T07:31:17;44.10;;;18.90;;
22916;SDS011;11624;53.250;7.456;2022-12-18T07:33:48;44.03;;;18.90;;
22916;SDS011;11624;53.250;7.456;2022-12-18T07:36:16;47.07;;;18.93;;
22916;SDS011;11624;53.250;7.456;2022-12-18T07:38:50;39.80;;;17.57;;
22916;SDS011;11624;53.250;7.456;2022-12-18T07:41:19;36.90;;;17.40;;
22916;SDS011;11624;53.250;7.456;2022-12-18T07:43:48;43.90;;;18.60;;
22916;SDS011;11624;53.250;7.456;2022-12-18T07:46:17;47.73;;;17.97;;
22916;SDS011;11624;53.250;7.456;2022-12-18T07:48:46;43.13;;;17.53;;
22916;SDS011;11624;53.250;7.456;2022-12-18T07:51:15;39.30;;;17.40;;
22916;SDS011;11624;53.250;7.456;2022-12-18T07:53:44;42.73;;;17.93;;
22916;SDS011;11624;53.250;7.456;2022-12-18T07:56:18;41.03;;;16.53;;
22916;SDS011;11624;53.250;7.456;2022-12-18T07:58:56;41.83;;;17.83;;
22916;SDS011;11624;53.250;7.456;2022-12-18T08:01:29;39.27;;;16.57;;
22916;SDS011;11624;53.250;7.456;2022-12-18T08:03:57;37.73;;;17.33;;
22916;SDS011;11624;53.250;7.456;2022-12-18T08:06:25;38.93;;;17.00;;
22916;SDS011;11624;53.250;7.456;2022-12-18T08:08:53;36.30;;;15.53;;
22916;SDS011;11624;53.250;7.456;2022-12-18T08:11:23;32.73;;;14.90;;
22916;SDS011;11624;53.250;7.456;2022-12-18T08:13:52;37.40;;;16.07;;
22916;SDS011;11624;53.250;7.456;2022-12-18T08:16:22;35.63;;;15.53;;
22916;SDS011;11624;53.250;7.456;2022-12-18T08:18:52;34.37;;;15.53;;
22916;SDS011;11624;53.250;7.456;2022-12-18T08:21:22;34.50;;;15.27;;
22916;SDS011;11624;53.250;7.456;2022-12-18T08:23:51;33.60;;;14.80;;
22916;SDS011;11624;53.250;7.456;2022-12-18T08:26:20;31.50;;;14.37;;
22916;SDS011;11624;53.250;7.456;2022-12-18T08:28:49;35.20;;;16.23;;
22916;SDS011;11624;53.250;7.456;2022-12-18T08:31:18;33.63;;;15.30;;
22916;SDS011;11624;53.250;7.456;2022-12-18T08:33:47;35.53;;;14.77;;
22916;SDS011;11624;53.250;7.456;2022-12-18T08:36:18;32.67;;;14.57;;
22916;SDS011;11624;53.250;7.456;2022-12-18T08:38:46;30.73;;;13.83;;
22916;SDS011;11624;53.250;7.456;2022-12-18T08:41:15;29.93;;;13.83;;
22916;SDS011;11624;53.250;7.456;2022-12-18T08:43:44;33.73;;;13.83;;
22916;SDS011;11624;53.250;7.456;2022-12-18T08:46:34;29.07;;;13.10;;
22916;SDS011;11624;53.250;7.456;2022-12-18T08:49:04;31.67;;;14.17;;
22916;SDS011;11624;53.250;7.456;2022-12-18T08:51:34;30.27;;;13.33;;
22916;SDS011;11624;53.250;7.456;2022-12-18T08:54:03;30.13;;;12.87;;
22916;SDS011;11624;53.250;7.456;2022-12-18T08:56:32;30.17;;;13.77;;
22916;SDS011;11624;53.250;7.456;2022-12-18T08:59:00;32.53;;;13.73;;
22916;SDS011;11624;53.250;7.456;2022-12-18T09:01:29;28.40;;;12.53;;
22916;SDS011;11624;53.250;7.456;2022-12-18T09:03:59;32.67;;;14.50;;
22916;SDS011;11624;53.250;7.456;2022-12-18T09:06:27;33.83;;;15.73;;
22916;SDS011;11624;53.250;7.456;2022-12-18T09:08:56;27.93;;;13.93;;
22916;SDS011;11624;53.250;7.456;2022-12-18T09:11:26;27.87;;;12.20;;
22916;SDS011;11624;53.250;7.456;2022-12-18T09:13:55;30.33;;;12.30;;
22916;SDS011;11624;53.250;7.456;2022-12-18T09:16:25;25.53;;;11.80;;
22916;SDS011;11624;53.250;7.456;2022-12-18T09:18:58;26.90;;;12.70;;
22916;SDS011;11624;53.250;7.456;2022-12-18T09:21:27;24.60;;;12.03;;
22916;SDS011;11624;53.250;7.456;2022-12-18T09:24:00;25.93;;;12.33;;
22916;SDS011;11624;53.250;7.456;2022-12-18T09:26:28;25.57;;;12.00;;
22916;SDS011;11624;53.250;7.456;2022-12-18T09:28:56;28.57;;;12.53;;
22916;SDS011;11624;53.250;7.456;2022-12-18T09:31:25;32.03;;;15.77;;
22916;SDS011;11624;53.250;7.456;2022-12-18T09:33:54;34.90;;;16.50;;
22916;SDS011;11624;53.250;7.456;2022-12-18T09:36:22;32.33;;;14.40;;
22916;SDS011;11624;53.250;7.456;2022-12-18T09:38:50;38.57;;;16.10;;
22916;SDS011;11624;53.250;7.456;2022-12-18T09:41:26;34.67;;;15.27;;
22916;SDS011;11624;53.250;7.456;2022-12-18T09:44:05;26.37;;;11.83;;
22916;SDS011;11624;53.250;7.456;2022-12-18T09:46:41;28.00;;;13.03;;
22916;SDS011;11624;53.250;7.456;2022-12-18T09:49:13;28.30;;;12.60;;
22916;SDS011;11624;53.250;7.456;2022-12-18T09:51:47;27.47;;;11.93;;
22916;SDS011;11624;53.250;7.456;2022-12-18T09:54:21;26.93;;;11.53;;
22916;SDS011;11624;53.250;7.456;2022-12-18T09:56:54;26.73;;;11.27;;
22916;SDS011;11624;53.250;7.456;2022-12-18T09:59:23;23.03;;;11.10;;
22916;SDS011;11624;53.250;7.456;2022-12-18T10:01:55;24.30;;;11.30;;
22916;SDS011;11624;53.250;7.456;2022-12-18T10:04:25;26.37;;;12.07;;
22916;SDS011;11624;53.250;7.456;2022-12-18T10:06:59;24.50;;;11.77;;
22916;SDS011;11624;53.250;7.456;2022-12-18T10:09:36;23.50;;;11.23;;
22916;SDS011;11624;53.250;7.456;2022-12-18T10:12:12;26.13;;;12.10;;
22916;SDS011;11624;53.250;7.456;2022-12-18T10:14:49;24.77;;;10.63;;
22916;SDS011;11624;53.250;7.456;2022-12-18T10:17:24;27.60;;;13.43;;
22916;SDS011;11624;53.250;7.456;2022-12-18T10:20:01;30.63;;;12.30;;
22916;SDS011;11624;53.250;7.456;2022-12-18T10:22:39;33.23;;;21.07;;
22916;SDS011;11624;53.250;7.456;2022-12-18T10:25:20;27.07;;;11.93;;
22916;SDS011;11624;53.250;7.456;2022-12-18T10:27:53;28.67;;;13.97;;
22916;SDS011;11624;53.250;7.456;2022-12-18T10:30:24;36.77;;;20.07;;
22916;SDS011;11624;53.250;7.456;2022-12-18T10:32:53;46.43;;;22.80;;
22916;SDS011;11624;53.250;7.456;2022-12-18T10:35:23;27.03;;;13.77;;
22916;SDS011;11624;53.250;7.456;2022-12-18T10:37:59;22.30;;;11.70;;
22916;SDS011;11624;53.250;7.456;2022-12-18T10:40:36;46.67;;;20.67;;
22916;SDS011;11624;53.250;7.456;2022-12-18T10:43:19;23.20;;;11.63;;
22916;SDS011;11624;53.250;7.456;2022-12-18T10:46:03;23.63;;;11.27;;
22916;SDS011;11624;53.250;7.456;2022-12-18T10:48:40;20.23;;;10.20;;
22916;SDS011;11624;53.250;7.456;2022-12-18T10:51:19;22.17;;;10.23;;
22916;SDS011;11624;53.250;7.456;2022-12-18T10:53:51;21.50;;;10.50;;
22916;SDS011;11624;53.250;7.456;2022-12-18T10:56:21;24.53;;;10.27;;
22916;SDS011;11624;53.250;7.456;2022-12-18T10:58:57;23.30;;;11.23;;
22916;SDS011;11624;53.250;7.456;2022-12-18T11:01:29;26.77;;;12.20;;
22916;SDS011;11624;53.250;7.456;2022-12-18T11:04:15;24.97;;;12.47;;
22916;SDS011;11624;53.250;7.456;2022-12-18T11:06:53;22.63;;;10.77;;
22916;SDS011;11624;53.250;7.456;2022-12-18T11:09:23;22.07;;;10.23;;
22916;SDS011;11624;53.250;7.456;2022-12-18T11:11:53;20.33;;;8.77;;
22916;SDS011;11624;53.250;7.456;2022-12-18T11:14:25;23.83;;;10.37;;
22916;SDS011;11624;53.250;7.456;2022-12-18T11:16:55;19.90;;;8.60;;
22916;SDS011;11624;53.250;7.456;2022-12-18T11:19:45;19.40;;;9.37;;
22916;SDS011;11624;53.250;7.456;2022-12-18T11:22:21;23.03;;;10.17;;
22916;SDS011;11624;53.250;7.456;2022-12-18T11:24:53;20.43;;;9.57;;
22916;SDS011;11624;53.250;7.456;2022-12-18T11:27:47;24.53;;;11.03;;
22916;SDS011;11624;53.250;7.456;2022-12-18T11:30:22;23.47;;;11.40;;
22916;SDS011;11624;53.250;7.456;2022-12-18T11:32:52;26.63;;;11.17;;
22916;SDS011;11624;53.250;7.456;2022-12-18T11:35:25;22.23;;;11.13;;
22916;SDS011;11624;53.250;7.456;2022-12-18T11:38:02;32.13;;;15.37;;
22916;SDS011;11624;53.250;7.456;2022-12-18T11:40:39;24.30;;;12.20;;
22916;SDS011;11624;53.250;7.456;2022-12-18T11:43:13;25.70;;;11.93;;
22916;SDS011;11624;53.250;7.456;2022-12-18T11:45:47;27.87;;;12.43;;
22916;SDS011;11624;53.250;7.456;2022-12-18T11:48:21;23.93;;;11.40;;
22916;SDS011;11624;53.250;7.456;2022-12-18T11:50:52;26.37;;;12.23;;
22916;SDS011;11624;53.250;7.456;2022-12-18T11:53:22;50.67;;;21.10;;
22916;SDS011;11624;53.250;7.456;2022-12-18T11:58:47;39.67;;;15.33;;
22916;SDS011;11624;53.250;7.456;2022-12-18T12:01:25;46.17;;;17.87;;
22916;SDS011;11624;53.250;7.456;2022-12-18T12:04:20;30.10;;;13.17;;
22916;SDS011;11624;53.250;7.456;2022-12-18T12:07:12;24.60;;;10.63;;
22916;SDS011;11624;53.250;7.456;2022-12-18T12:09:50;27.77;;;11.97;;
22916;SDS011;11624;53.250;7.456;2022-12-18T12:12:30;23.70;;;10.93;;
22916;SDS011;11624;53.250;7.456;2022-12-18T12:15:25;26.57;;;12.13;;
22916;SDS011;11624;53.250;7.456;2022-12-18T12:18:05;28.00;;;12.43;;
22916;SDS011;11624;53.250;7.456;2022-12-18T12:20:43;26.50;;;13.10;;
22916;SDS011;11624;53.250;7.456;2022-12-18T12:23:21;29.53;;;13.27;;
22916;SDS011;11624;53.250;7.456;2022-12-18T12:25:58;26.90;;;12.90;;
22916;SDS011;11624;53.250;7.456;2022-12-18T12:28:37;27.17;;;13.57;;
22916;SDS011;11624;53.250;7.456;2022-12-18T12:31:27;26.13;;;11.37;;
22916;SDS011;11624;53.250;7.456;2022-12-18T12:34:09;25.67;;;12.20;;
22916;SDS011;11624;53.250;7.456;2022-12-18T12:36:48;26.33;;;14.87;;
22916;SDS011;11624;53.250;7.456;2022-12-18T12:39:26;24.63;;;11.83;;
22916;SDS011;11624;53.250;7.456;2022-12-18T12:41:59;21.70;;;10.07;;
22916;SDS011;11624;53.250;7.456;2022-12-18T12:44:46;25.23;;;11.07;;
22916;SDS011;11624;53.250;7.456;2022-12-18T12:47:23;23.20;;;10.43;;
22916;SDS011;11624;53.250;7.456;2022-12-18T12:49:56;23.67;;;10.57;;
22916;SDS011;11624;53.250;7.456;2022-12-18T12:52:28;22.90;;;10.73;;
22916;SDS011;11624;53.250;7.456;2022-12-18T12:55:02;23.70;;;11.37;;
22916;SDS011;11624;53.250;7.456;2022-12-18T12:57:40;23.23;;;10.00;;
22916;SDS011;11624;53.250;7.456;2022-12-18T13:00:14;26.20;;;11.07;;
22916;SDS011;11624;53.250;7.456;2022-12-18T13:02:47;24.90;;;11.30;;
22916;SDS011;11624;53.250;7.456;2022-12-18T13:05:21;22.73;;;10.20;;
22916;SDS011;11624;53.250;7.456;2022-12-18T13:07:56;25.70;;;10.67;;
22916;SDS011;11624;53.250;7.456;2022-12-18T13:10:30;24.97;;;11.53;;
22916;SDS011;11624;53.250;7.456;2022-12-18T13:13:01;24.67;;;11.43;;
22916;SDS011;11624;53.250;7.456;2022-12-18T13:15:37;23.00;;;11.57;;
22916;SDS011;11624;53.250;7.456;2022-12-18T13:18:14;23.73;;;10.23;;
22916;SDS011;11624;53.250;7.456;2022-12-18T13:20:46;24.17;;;10.80;;
22916;SDS011;11624;53.250;7.456;2022-12-18T13:23:33;22.13;;;10.40;;
22916;SDS011;11624;53.250;7.456;2022-12-18T13:29:03;23.57;;;10.57;;
22916;SDS011;11624;53.250;7.456;2022-12-18T13:34:34;23.73;;;10.70;;
22916;SDS011;11624;53.250;7.456;2022-12-18T13:43:31;22.33;;;9.90;;
22916;SDS011;11624;53.250;7.456;2022-12-18T13:46:06;24.37;;;9.80;;
22916;SDS011;11624;53.250;7.456;2022-12-18T13:48:54;23.77;;;10.50;;
22916;SDS011;11624;53.250;7.456;2022-12-18T13:51:25;28.50;;;12.00;;
22916;SDS011;11624;53.250;7.456;2022-12-18T13:53:54;28.27;;;12.40;;
22916;SDS011;11624;53.250;7.456;2022-12-18T13:56:26;36.23;;;14.60;;
22916;SDS011;11624;53.250;7.456;2022-12-18T13:59:13;39.13;;;17.53;;
22916;SDS011;11624;53.250;7.456;2022-12-18T14:01:51;37.13;;;15.27;;
22916;SDS011;11624;53.250;7.456;2022-12-18T14:04:22;33.67;;;15.03;;
22916;SDS011;11624;53.250;7.456;2022-12-18T14:06:52;30.10;;;14.80;;
22916;SDS011;11624;53.250;7.456;2022-12-18T14:09:24;31.17;;;15.80;;
22916;SDS011;11624;53.250;7.456;2022-12-18T14:11:55;37.97;;;18.90;;
22916;SDS011;11624;53.250;7.456;2022-12-18T14:14:42;28.50;;;15.13;;
22916;SDS011;11624;53.250;7.456;2022-12-18T14:17:14;24.20;;;10.93;;
22916;SDS011;11624;53.250;7.456;2022-12-18T14:19:44;23.33;;;10.90;;
22916;SDS011;11624;53.250;7.456;2022-12-18T14:22:14;22.70;;;10.97;;
22916;SDS011;11624;53.250;7.456;2022-12-18T14:24:44;25.07;;;10.23;;
22916;SDS011;11624;53.250;7.456;2022-12-18T14:27:19;22.83;;;10.70;;
22916;SDS011;11624;53.250;7.456;2022-12-18T14:29:51;24.33;;;10.37;;
22916;SDS011;11624;53.250;7.456;2022-12-18T14:32:19;23.40;;;9.57;;
22916;SDS011;11624;53.250;7.456;2022-12-18T14:34:49;23.47;;;10.63;;
22916;SDS011;11624;53.250;7.456;2022-12-18T14:37:20;24.27;;;10.90;;
22916;SDS011;11624;53.250;7.456;2022-12-18T14:39:54;22.93;;;9.93;;
22916;SDS011;11624;53.250;7.456;2022-12-18T14:42:24;20.53;;;10.13;;
22916;SDS011;11624;53.250;7.456;2022-12-18T14:48:08;20.33;;;9.07;;
22916;SDS011;11624;53.250;7.456;2022-12-18T14:50:55;18.23;;;8.73;;
22916;SDS011;11624;53.250;7.456;2022-12-18T14:53:32;23.20;;;9.33;;
22916;SDS011;11624;53.250;7.456;2022-12-18T14:56:02;20.70;;;8.77;;
22916;SDS011;11624;53.250;7.456;2022-12-18T14:58:37;20.57;;;8.60;;
22916;SDS011;11624;53.250;7.456;2022-12-18T15:01:07;19.93;;;9.00;;
22916;SDS011;11624;53.250;7.456;2022-12-18T15:03:35;18.93;;;8.00;;
22916;SDS011;11624;53.250;7.456;2022-12-18T15:06:15;21.97;;;9.23;;
22916;SDS011;11624;53.250;7.456;2022-12-18T15:08:45;19.87;;;8.13;;
22916;SDS011;11624;53.250;7.456;2022-12-18T15:11:27;22.03;;;8.17;;